AUA30MG LFMN-LOWW
Flight info
| Callsign | AUA30MG |
|---|---|
| Flight time | 1h 14m |
| Altitude | 36000 |
| Route | BASIP DCT EGHIN DCT ANAKI DCT KALIK DCT ARALD/N0441F350 DCT ABTAN ABTAN2W |
| Aircraft | A321/M-SDE3FGHIRWY/LB1 |
Departure
| Time | 2026-05-06 17:22 |
|---|---|
| Airport | Nice-Côte d'Azur Airport (LFMN) |
Arrival
| Time | 2026-05-06 18:37 |
|---|---|
| Airport | Vienna International Airport (LOWW) |
| Time | Latitude | Longitude | Altitude | Speed | Heading |
|---|---|---|---|---|---|
| 2026-05-06 17:02 | 43.66404 | 7.21173 | 22 ft | 0 kts | 13° |
| 2026-05-06 17:11 | 43.66383 | 7.21167 | 23 ft | 4 kts | 13° |
| 2026-05-06 17:11 | 43.66359 | 7.21160 | 26 ft | 1 kts | 9° |
| 2026-05-06 17:11 | 43.66336 | 7.21155 | 23 ft | 4 kts | 13° |
| 2026-05-06 17:11 | 43.66319 | 7.21142 | 23 ft | 3 kts | 81° |
| 2026-05-06 17:12 | 43.66316 | 7.21113 | 23 ft | 1 kts | 81° |
| 2026-05-06 17:16 | 43.66321 | 7.21154 | 23 ft | 9 kts | 81° |
| 2026-05-06 17:16 | 43.66335 | 7.21274 | 22 ft | 15 kts | 80° |
| 2026-05-06 17:16 | 43.66352 | 7.21409 | 22 ft | 13 kts | 79° |
| 2026-05-06 17:16 | 43.66369 | 7.21524 | 22 ft | 11 kts | 106° |
| 2026-05-06 17:17 | 43.66328 | 7.21621 | 24 ft | 14 kts | 99° |
| 2026-05-06 17:17 | 43.66391 | 7.21750 | 22 ft | 19 kts | 41° |
| 2026-05-06 17:17 | 43.66501 | 7.21895 | 22 ft | 25 kts | 41° |
| 2026-05-06 17:17 | 43.66525 | 7.22062 | 23 ft | 19 kts | 123° |
| 2026-05-06 17:18 | 43.66441 | 7.22184 | 23 ft | 17 kts | 135° |
| 2026-05-06 17:18 | 43.66374 | 7.22322 | 24 ft | 19 kts | 90° |
| 2026-05-06 17:18 | 43.66456 | 7.22479 | 22 ft | 18 kts | 49° |
| 2026-05-06 17:18 | 43.66538 | 7.22585 | 22 ft | 0 kts | 41° |
| 2026-05-06 17:19 | 43.66538 | 7.22586 | 22 ft | 0 kts | 41° |
| 2026-05-06 17:19 | 43.66570 | 7.22630 | 22 ft | 11 kts | 50° |
| 2026-05-06 17:19 | 43.66580 | 7.22669 | 22 ft | 0 kts | 82° |
| 2026-05-06 17:20 | 43.66580 | 7.22670 | 22 ft | 1 kts | 83° |
| 2026-05-06 17:20 | 43.66555 | 7.22745 | 22 ft | 15 kts | 141° |
| 2026-05-06 17:20 | 43.66482 | 7.22732 | 24 ft | 10 kts | 219° |
| 2026-05-06 17:20 | 43.66480 | 7.22729 | 24 ft | 0 kts | 221° |
| 2026-05-06 17:21 | 43.66443 | 7.22682 | 24 ft | 28 kts | 225° |
| 2026-05-06 17:21 | 43.66134 | 7.22259 | 27 ft | 94 kts | 225° |
| 2026-05-06 17:22 | 43.65543 | 7.21444 | 26 ft | 144 kts | 224° |
| 2026-05-06 17:22 | 43.64828 | 7.20428 | 576 ft | 141 kts | 225° |
| 2026-05-06 17:22 | 43.64154 | 7.19460 | 1267 ft | 139 kts | 223° |
| 2026-05-06 17:22 | 43.63432 | 7.18551 | 1730 ft | 145 kts | 222° |
| 2026-05-06 17:23 | 43.62651 | 7.17596 | 2144 ft | 154 kts | 224° |
| 2026-05-06 17:23 | 43.61774 | 7.16621 | 2452 ft | 171 kts | 215° |
| 2026-05-06 17:23 | 43.60660 | 7.15860 | 2762 ft | 186 kts | 200° |
| 2026-05-06 17:23 | 43.59363 | 7.15506 | 3144 ft | 201 kts | 184° |
| 2026-05-06 17:24 | 43.57944 | 7.16088 | 3382 ft | 228 kts | 155° |
| 2026-05-06 17:24 | 43.56527 | 7.17326 | 3544 ft | 256 kts | 143° |
| 2026-05-06 17:24 | 43.55399 | 7.19360 | 3893 ft | 280 kts | 115° |
| 2026-05-06 17:24 | 43.54878 | 7.21989 | 4584 ft | 287 kts | 103° |
| 2026-05-06 17:25 | 43.54417 | 7.24685 | 5303 ft | 291 kts | 105° |
| 2026-05-06 17:25 | 43.53914 | 7.27385 | 6127 ft | 291 kts | 102° |
| 2026-05-06 17:25 | 43.53834 | 7.30174 | 6861 ft | 294 kts | 81° |
| 2026-05-06 17:25 | 43.54517 | 7.32826 | 7547 ft | 296 kts | 57° |
| 2026-05-06 17:26 | 43.55685 | 7.35191 | 8178 ft | 301 kts | 53° |
| 2026-05-06 17:26 | 43.56911 | 7.37562 | 8851 ft | 305 kts | 53° |
| 2026-05-06 17:26 | 43.58156 | 7.39945 | 9551 ft | 308 kts | 52° |
| 2026-05-06 17:26 | 43.59422 | 7.42369 | 10041 ft | 319 kts | 53° |
| 2026-05-06 17:27 | 43.60764 | 7.44943 | 10171 ft | 340 kts | 53° |
| 2026-05-06 17:27 | 43.62181 | 7.47676 | 10325 ft | 359 kts | 53° |
| 2026-05-06 17:27 | 43.63645 | 7.50518 | 10778 ft | 366 kts | 53° |
| 2026-05-06 17:27 | 43.65107 | 7.53362 | 11352 ft | 370 kts | 54° |
| 2026-05-06 17:28 | 43.66604 | 7.56277 | 11946 ft | 373 kts | 54° |
| 2026-05-06 17:28 | 43.68111 | 7.59219 | 12545 ft | 377 kts | 54° |
| 2026-05-06 17:28 | 43.69634 | 7.62194 | 13105 ft | 381 kts | 54° |
| 2026-05-06 17:28 | 43.71175 | 7.65203 | 13676 ft | 385 kts | 54° |
| 2026-05-06 17:29 | 43.72726 | 7.68237 | 14187 ft | 389 kts | 54° |
| 2026-05-06 17:29 | 43.74294 | 7.71312 | 14672 ft | 393 kts | 54° |
| 2026-05-06 17:29 | 43.75878 | 7.74418 | 15148 ft | 397 kts | 54° |
| 2026-05-06 17:29 | 43.77483 | 7.77555 | 15637 ft | 401 kts | 53° |
| 2026-05-06 17:30 | 43.79248 | 7.80496 | 16100 ft | 404 kts | 47° |
| 2026-05-06 17:30 | 43.81119 | 7.83418 | 16566 ft | 407 kts | 47° |
| 2026-05-06 17:30 | 43.83009 | 7.86377 | 17030 ft | 411 kts | 47° |
| 2026-05-06 17:30 | 43.84911 | 7.89359 | 17485 ft | 415 kts | 47° |
| 2026-05-06 17:31 | 43.86825 | 7.92371 | 17958 ft | 419 kts | 47° |
| 2026-05-06 17:31 | 43.88757 | 7.95416 | 18347 ft | 422 kts | 47° |
| 2026-05-06 17:31 | 43.90705 | 7.98488 | 18638 ft | 427 kts | 48° |
| 2026-05-06 17:31 | 43.92678 | 8.01602 | 18923 ft | 432 kts | 48° |
| 2026-05-06 17:32 | 43.94674 | 8.04754 | 19263 ft | 435 kts | 48° |
| 2026-05-06 17:32 | 43.96676 | 8.07913 | 19648 ft | 437 kts | 48° |
| 2026-05-06 17:32 | 43.98691 | 8.11096 | 19990 ft | 440 kts | 48° |
| 2026-05-06 17:32 | 44.00713 | 8.14307 | 20299 ft | 443 kts | 48° |
| 2026-05-06 17:33 | 44.02747 | 8.17541 | 20622 ft | 447 kts | 49° |
| 2026-05-06 17:33 | 44.04709 | 8.20908 | 20941 ft | 449 kts | 56° |
| 2026-05-06 17:33 | 44.06285 | 8.24603 | 21228 ft | 452 kts | 65° |
| 2026-05-06 17:33 | 44.07507 | 8.28635 | 21532 ft | 454 kts | 70° |
| 2026-05-06 17:34 | 44.08667 | 8.32682 | 21843 ft | 457 kts | 70° |
| 2026-05-06 17:34 | 44.09855 | 8.36802 | 22157 ft | 461 kts | 70° |
| 2026-05-06 17:34 | 44.11056 | 8.40958 | 22460 ft | 465 kts | 70° |
| 2026-05-06 17:34 | 44.12271 | 8.45159 | 22761 ft | 469 kts | 70° |
| 2026-05-06 17:35 | 44.13493 | 8.49387 | 23084 ft | 473 kts | 71° |
| 2026-05-06 17:35 | 44.14720 | 8.53656 | 23395 ft | 476 kts | 71° |
| 2026-05-06 17:35 | 44.15949 | 8.57948 | 23675 ft | 479 kts | 71° |
| 2026-05-06 17:36 | 44.18428 | 8.66621 | 24279 ft | 484 kts | 71° |
| 2026-05-06 17:36 | 44.19669 | 8.70987 | 24577 ft | 486 kts | 71° |
| 2026-05-06 17:36 | 44.20885 | 8.75385 | 24863 ft | 487 kts | 73° |
| 2026-05-06 17:36 | 44.22026 | 8.79832 | 25178 ft | 488 kts | 74° |
| 2026-05-06 17:37 | 44.23108 | 8.84320 | 25473 ft | 489 kts | 75° |
| 2026-05-06 17:37 | 44.24159 | 8.88835 | 25754 ft | 491 kts | 76° |
| 2026-05-06 17:37 | 44.25211 | 8.93386 | 26032 ft | 493 kts | 76° |
| 2026-05-06 17:37 | 44.26277 | 8.97954 | 26327 ft | 496 kts | 76° |
| 2026-05-06 17:38 | 44.27361 | 9.02529 | 26609 ft | 498 kts | 75° |
| 2026-05-06 17:38 | 44.28460 | 9.07116 | 26878 ft | 500 kts | 75° |
| 2026-05-06 17:38 | 44.29751 | 9.11646 | 27138 ft | 505 kts | 64° |
| 2026-05-06 17:38 | 44.31740 | 9.15704 | 27445 ft | 509 kts | 50° |
| 2026-05-06 17:39 | 44.34015 | 9.19424 | 27701 ft | 511 kts | 50° |
| 2026-05-06 17:39 | 44.36339 | 9.23192 | 27959 ft | 513 kts | 50° |
| 2026-05-06 17:39 | 44.38683 | 9.26975 | 28215 ft | 516 kts | 50° |
| 2026-05-06 17:39 | 44.41034 | 9.30770 | 28466 ft | 518 kts | 50° |
| 2026-05-06 17:40 | 44.43398 | 9.34593 | 28725 ft | 520 kts | 50° |
| 2026-05-06 17:40 | 44.45765 | 9.38433 | 28975 ft | 521 kts | 50° |
| 2026-05-06 17:40 | 44.48137 | 9.42293 | 29198 ft | 524 kts | 50° |
| 2026-05-06 17:40 | 44.50516 | 9.46175 | 29401 ft | 525 kts | 50° |
| 2026-05-06 17:41 | 44.52895 | 9.50064 | 29612 ft | 525 kts | 50° |
| 2026-05-06 17:41 | 44.55275 | 9.53960 | 29836 ft | 526 kts | 50° |
| 2026-05-06 17:41 | 44.57657 | 9.57856 | 30077 ft | 526 kts | 50° |
| 2026-05-06 17:41 | 44.60035 | 9.61749 | 30307 ft | 526 kts | 50° |
| 2026-05-06 17:42 | 44.62418 | 9.65660 | 30457 ft | 528 kts | 51° |
| 2026-05-06 17:42 | 44.64802 | 9.69584 | 30680 ft | 528 kts | 51° |
| 2026-05-06 17:42 | 44.67184 | 9.73511 | 30901 ft | 528 kts | 51° |
| 2026-05-06 17:42 | 44.69567 | 9.77440 | 31132 ft | 528 kts | 51° |
| 2026-05-06 17:43 | 44.71945 | 9.81369 | 31349 ft | 528 kts | 51° |
| 2026-05-06 17:43 | 44.74290 | 9.85251 | 31588 ft | 527 kts | 51° |
| 2026-05-06 17:43 | 44.76658 | 9.89184 | 31866 ft | 526 kts | 51° |
| 2026-05-06 17:43 | 44.79024 | 9.93116 | 32053 ft | 526 kts | 51° |
| 2026-05-06 17:44 | 44.81390 | 9.97051 | 32270 ft | 526 kts | 51° |
| 2026-05-06 17:44 | 44.83756 | 10.00982 | 32509 ft | 526 kts | 51° |
| 2026-05-06 17:44 | 44.86119 | 10.04912 | 32744 ft | 525 kts | 51° |
| 2026-05-06 17:44 | 44.88481 | 10.08845 | 32981 ft | 525 kts | 51° |
| 2026-05-06 17:45 | 44.90836 | 10.12772 | 33219 ft | 524 kts | 51° |
| 2026-05-06 17:45 | 44.93193 | 10.16708 | 33458 ft | 524 kts | 51° |
| 2026-05-06 17:45 | 44.95541 | 10.20635 | 33719 ft | 523 kts | 51° |
| 2026-05-06 17:45 | 44.97877 | 10.24553 | 33949 ft | 522 kts | 51° |
| 2026-05-06 17:46 | 45.00210 | 10.28470 | 34157 ft | 521 kts | 51° |
| 2026-05-06 17:46 | 45.02541 | 10.32393 | 34385 ft | 520 kts | 51° |
| 2026-05-06 17:46 | 45.04862 | 10.36305 | 34596 ft | 519 kts | 51° |
| 2026-05-06 17:46 | 45.07182 | 10.40216 | 34765 ft | 518 kts | 51° |
| 2026-05-06 17:47 | 45.09493 | 10.44120 | 34960 ft | 517 kts | 51° |
| 2026-05-06 17:47 | 45.11796 | 10.48016 | 35144 ft | 517 kts | 51° |
| 2026-05-06 17:47 | 45.14103 | 10.51921 | 35331 ft | 516 kts | 51° |
| 2026-05-06 17:47 | 45.16373 | 10.55772 | 35507 ft | 516 kts | 51° |
| 2026-05-06 17:48 | 45.18667 | 10.59670 | 35700 ft | 515 kts | 51° |
| 2026-05-06 17:48 | 45.20959 | 10.63570 | 35835 ft | 514 kts | 51° |
| 2026-05-06 17:48 | 45.25515 | 10.71334 | 35866 ft | 511 kts | 51° |
| 2026-05-06 17:49 | 45.30051 | 10.79089 | 35862 ft | 510 kts | 51° |
| 2026-05-06 17:49 | 45.34586 | 10.86848 | 35865 ft | 510 kts | 51° |
| 2026-05-06 17:50 | 45.39113 | 10.94626 | 35870 ft | 509 kts | 51° |
| 2026-05-06 17:50 | 45.43614 | 11.02395 | 35867 ft | 509 kts | 51° |
| 2026-05-06 17:51 | 45.48116 | 11.10174 | 35881 ft | 508 kts | 51° |
| 2026-05-06 17:51 | 45.52607 | 11.17950 | 35889 ft | 508 kts | 51° |
| 2026-05-06 17:52 | 45.57092 | 11.25734 | 35905 ft | 508 kts | 51° |
| 2026-05-06 17:52 | 45.61542 | 11.33485 | 35933 ft | 508 kts | 52° |
| 2026-05-06 17:53 | 45.66015 | 11.41297 | 35924 ft | 507 kts | 52° |
| 2026-05-06 17:53 | 45.70476 | 11.49112 | 35928 ft | 506 kts | 52° |
| 2026-05-06 17:54 | 45.74924 | 11.56930 | 35934 ft | 506 kts | 52° |
| 2026-05-06 17:54 | 45.78618 | 11.63436 | 35930 ft | 506 kts | 52° |
| 2026-05-06 17:55 | 45.83776 | 11.72546 | 35938 ft | 505 kts | 52° |
| 2026-05-06 17:55 | 45.88201 | 11.80381 | 35936 ft | 505 kts | 52° |
| 2026-05-06 17:56 | 45.91873 | 11.86890 | 35933 ft | 505 kts | 52° |
| 2026-05-06 17:56 | 45.96285 | 11.94747 | 35898 ft | 505 kts | 52° |
| 2026-05-06 17:57 | 46.00680 | 12.02608 | 35916 ft | 504 kts | 52° |
| 2026-05-06 17:57 | 46.05068 | 12.10469 | 35922 ft | 504 kts | 52° |
| 2026-05-06 17:58 | 46.09454 | 12.18343 | 35912 ft | 503 kts | 52° |
| 2026-05-06 17:58 | 46.13831 | 12.26212 | 35918 ft | 503 kts | 52° |
| 2026-05-06 17:59 | 46.18195 | 12.34090 | 35917 ft | 503 kts | 52° |
| 2026-05-06 17:59 | 46.22556 | 12.42004 | 35911 ft | 503 kts | 52° |
| 2026-05-06 18:00 | 46.26907 | 12.49914 | 35892 ft | 503 kts | 52° |
| 2026-05-06 18:00 | 46.31257 | 12.57846 | 35911 ft | 503 kts | 52° |
| 2026-05-06 18:01 | 46.35572 | 12.65726 | 35913 ft | 502 kts | 52° |
| 2026-05-06 18:01 | 46.39908 | 12.73664 | 35912 ft | 502 kts | 52° |
| 2026-05-06 18:02 | 46.44238 | 12.81608 | 35920 ft | 502 kts | 52° |
| 2026-05-06 18:02 | 46.47882 | 12.90144 | 35927 ft | 497 kts | 68° |
| 2026-05-06 18:03 | 46.50671 | 12.99323 | 35915 ft | 496 kts | 69° |
| 2026-05-06 18:03 | 46.53422 | 13.08514 | 35898 ft | 496 kts | 68° |
| 2026-05-06 18:04 | 46.56154 | 13.17652 | 35900 ft | 496 kts | 68° |
| 2026-05-06 18:04 | 46.58902 | 13.26854 | 35899 ft | 496 kts | 68° |
| 2026-05-06 18:05 | 46.61650 | 13.36075 | 35907 ft | 496 kts | 69° |
| 2026-05-06 18:05 | 46.64384 | 13.45289 | 35915 ft | 495 kts | 69° |
| 2026-05-06 18:06 | 46.67106 | 13.54484 | 35889 ft | 494 kts | 68° |
| 2026-05-06 18:06 | 46.69813 | 13.63668 | 35894 ft | 493 kts | 68° |
| 2026-05-06 18:07 | 46.72498 | 13.72844 | 35898 ft | 492 kts | 68° |
| 2026-05-06 18:07 | 46.75167 | 13.82020 | 35892 ft | 492 kts | 68° |
| 2026-05-06 18:08 | 46.77844 | 13.91196 | 35898 ft | 491 kts | 68° |
| 2026-05-06 18:08 | 46.80506 | 14.00344 | 35349 ft | 488 kts | 69° |
| 2026-05-06 18:09 | 46.81827 | 14.04901 | 34677 ft | 487 kts | 69° |
| 2026-05-06 18:09 | 46.83147 | 14.09476 | 33951 ft | 489 kts | 69° |
| 2026-05-06 18:09 | 46.84466 | 14.14058 | 33097 ft | 491 kts | 69° |
| 2026-05-06 18:09 | 46.85790 | 14.18670 | 32245 ft | 493 kts | 69° |
| 2026-05-06 18:10 | 46.87108 | 14.23275 | 31746 ft | 489 kts | 69° |
| 2026-05-06 18:10 | 46.88404 | 14.27809 | 31393 ft | 489 kts | 69° |
| 2026-05-06 18:10 | 46.89730 | 14.32451 | 31034 ft | 487 kts | 69° |
| 2026-05-06 18:10 | 46.91031 | 14.37008 | 30703 ft | 485 kts | 69° |
| 2026-05-06 18:11 | 46.92310 | 14.41496 | 30364 ft | 482 kts | 69° |
| 2026-05-06 18:11 | 46.93596 | 14.46016 | 29999 ft | 480 kts | 68° |
| 2026-05-06 18:11 | 46.94874 | 14.50516 | 29614 ft | 478 kts | 68° |
| 2026-05-06 18:11 | 46.96144 | 14.54993 | 29217 ft | 474 kts | 68° |
| 2026-05-06 18:12 | 46.97401 | 14.59434 | 28828 ft | 470 kts | 68° |
| 2026-05-06 18:12 | 46.98643 | 14.63843 | 28446 ft | 467 kts | 69° |
| 2026-05-06 18:12 | 46.99875 | 14.68225 | 28069 ft | 464 kts | 69° |
| 2026-05-06 18:12 | 47.01095 | 14.72574 | 27694 ft | 460 kts | 69° |
| 2026-05-06 18:13 | 47.02307 | 14.76897 | 27325 ft | 457 kts | 69° |
| 2026-05-06 18:13 | 47.03510 | 14.81190 | 26959 ft | 453 kts | 69° |
| 2026-05-06 18:13 | 47.04701 | 14.85442 | 26608 ft | 450 kts | 69° |
| 2026-05-06 18:13 | 47.05882 | 14.89662 | 26254 ft | 446 kts | 69° |
| 2026-05-06 18:14 | 47.07052 | 14.93856 | 25906 ft | 442 kts | 69° |
| 2026-05-06 18:14 | 47.08211 | 14.98020 | 25541 ft | 440 kts | 70° |
| 2026-05-06 18:14 | 47.09367 | 15.02174 | 25196 ft | 438 kts | 70° |
| 2026-05-06 18:14 | 47.10518 | 15.06313 | 24862 ft | 437 kts | 70° |
| 2026-05-06 18:15 | 47.11659 | 15.10427 | 24528 ft | 434 kts | 70° |
| 2026-05-06 18:15 | 47.12776 | 15.14471 | 24197 ft | 431 kts | 70° |
| 2026-05-06 18:15 | 47.13899 | 15.18535 | 23868 ft | 428 kts | 70° |
| 2026-05-06 18:15 | 47.15014 | 15.22584 | 23552 ft | 426 kts | 71° |
| 2026-05-06 18:16 | 47.16115 | 15.26601 | 23187 ft | 424 kts | 71° |
| 2026-05-06 18:16 | 47.17213 | 15.30613 | 22807 ft | 422 kts | 71° |
| 2026-05-06 18:16 | 47.18300 | 15.34599 | 22429 ft | 419 kts | 71° |
| 2026-05-06 18:16 | 47.19381 | 15.38561 | 22054 ft | 416 kts | 70° |
| 2026-05-06 18:17 | 47.20459 | 15.42504 | 21678 ft | 414 kts | 70° |
| 2026-05-06 18:17 | 47.21530 | 15.46425 | 21307 ft | 412 kts | 70° |
| 2026-05-06 18:17 | 47.22595 | 15.50326 | 20948 ft | 409 kts | 70° |
| 2026-05-06 18:17 | 47.23651 | 15.54206 | 20585 ft | 407 kts | 71° |
| 2026-05-06 18:18 | 47.24696 | 15.58065 | 20246 ft | 405 kts | 70° |
| 2026-05-06 18:18 | 47.25737 | 15.61906 | 19899 ft | 403 kts | 70° |
| 2026-05-06 18:18 | 47.26773 | 15.65729 | 19645 ft | 401 kts | 70° |
| 2026-05-06 18:18 | 47.27819 | 15.69530 | 19400 ft | 401 kts | 67° |
| 2026-05-06 18:19 | 47.29311 | 15.72984 | 19164 ft | 401 kts | 49° |
| 2026-05-06 18:19 | 47.31417 | 15.75640 | 18917 ft | 399 kts | 30° |
| 2026-05-06 18:19 | 47.33910 | 15.77368 | 18684 ft | 396 kts | 20° |
| 2026-05-06 18:19 | 47.36428 | 15.78892 | 18451 ft | 395 kts | 20° |
| 2026-05-06 18:20 | 47.38968 | 15.80424 | 18206 ft | 393 kts | 20° |
| 2026-05-06 18:20 | 47.41490 | 15.81945 | 17873 ft | 389 kts | 20° |
| 2026-05-06 18:20 | 47.43987 | 15.83456 | 17305 ft | 387 kts | 20° |
| 2026-05-06 18:20 | 47.46475 | 15.84966 | 16761 ft | 385 kts | 20° |
| 2026-05-06 18:21 | 47.48943 | 15.86470 | 16259 ft | 383 kts | 21° |
| 2026-05-06 18:21 | 47.51396 | 15.87971 | 15758 ft | 381 kts | 21° |
| 2026-05-06 18:21 | 47.53842 | 15.89467 | 15273 ft | 379 kts | 21° |
| 2026-05-06 18:21 | 47.56262 | 15.90949 | 14831 ft | 374 kts | 20° |
| 2026-05-06 18:22 | 47.58656 | 15.92416 | 14370 ft | 370 kts | 21° |
| 2026-05-06 18:22 | 47.61019 | 15.93868 | 13965 ft | 365 kts | 21° |
| 2026-05-06 18:22 | 47.63361 | 15.95306 | 13460 ft | 365 kts | 20° |
| 2026-05-06 18:22 | 47.65706 | 15.96745 | 12933 ft | 363 kts | 21° |
| 2026-05-06 18:23 | 47.68028 | 15.98173 | 12414 ft | 360 kts | 20° |
| 2026-05-06 18:23 | 47.70338 | 15.99593 | 11890 ft | 358 kts | 21° |
| 2026-05-06 18:23 | 47.72630 | 16.01001 | 11384 ft | 355 kts | 21° |
| 2026-05-06 18:23 | 47.74905 | 16.02399 | 10893 ft | 353 kts | 20° |
| 2026-05-06 18:24 | 47.77159 | 16.03786 | 10408 ft | 350 kts | 20° |
| 2026-05-06 18:24 | 47.79401 | 16.05171 | 9914 ft | 347 kts | 21° |
| 2026-05-06 18:24 | 47.81623 | 16.06548 | 9411 ft | 344 kts | 20° |
| 2026-05-06 18:24 | 47.83827 | 16.07917 | 8892 ft | 342 kts | 20° |
| 2026-05-06 18:25 | 47.86018 | 16.09276 | 8378 ft | 340 kts | 19° |
| 2026-05-06 18:25 | 47.88194 | 16.10622 | 7875 ft | 337 kts | 20° |
| 2026-05-06 18:25 | 47.90326 | 16.11941 | 7385 ft | 336 kts | 20° |
| 2026-05-06 18:25 | 47.92470 | 16.13270 | 7050 ft | 329 kts | 20° |
| 2026-05-06 18:26 | 47.94531 | 16.14556 | 6979 ft | 312 kts | 21° |
| 2026-05-06 18:26 | 47.96490 | 16.15686 | 6982 ft | 291 kts | 11° |
| 2026-05-06 18:26 | 47.98423 | 16.15970 | 6986 ft | 269 kts | 352° |
| 2026-05-06 18:26 | 48.00263 | 16.15803 | 6978 ft | 263 kts | 352° |
| 2026-05-06 18:27 | 48.02065 | 16.15638 | 6858 ft | 257 kts | 352° |
| 2026-05-06 18:27 | 48.03849 | 16.15470 | 6394 ft | 257 kts | 351° |
| 2026-05-06 18:27 | 48.05633 | 16.15298 | 6014 ft | 256 kts | 351° |
| 2026-05-06 18:27 | 48.07401 | 16.14987 | 5965 ft | 257 kts | 346° |
| 2026-05-06 18:28 | 48.09176 | 16.14588 | 5978 ft | 258 kts | 346° |
| 2026-05-06 18:28 | 48.10920 | 16.14162 | 5966 ft | 254 kts | 345° |
| 2026-05-06 18:28 | 48.12627 | 16.13749 | 5865 ft | 239 kts | 345° |
| 2026-05-06 18:28 | 48.14229 | 16.13368 | 5606 ft | 233 kts | 346° |
| 2026-05-06 18:29 | 48.15834 | 16.12985 | 5245 ft | 234 kts | 345° |
| 2026-05-06 18:29 | 48.17438 | 16.12599 | 4998 ft | 230 kts | 345° |
| 2026-05-06 18:29 | 48.18962 | 16.12224 | 4963 ft | 214 kts | 346° |
| 2026-05-06 18:29 | 48.19789 | 16.12017 | 4968 ft | 212 kts | 345° |
| 2026-05-06 18:30 | 48.21149 | 16.11602 | 4952 ft | 213 kts | 352° |
| 2026-05-06 18:30 | 48.22589 | 16.12134 | 4976 ft | 219 kts | 30° |
| 2026-05-06 18:30 | 48.23635 | 16.13755 | 4969 ft | 218 kts | 62° |
| 2026-05-06 18:30 | 48.24021 | 16.15895 | 4965 ft | 210 kts | 95° |
| 2026-05-06 18:31 | 48.23702 | 16.17955 | 4968 ft | 200 kts | 122° |
| 2026-05-06 18:31 | 48.23108 | 16.19808 | 4970 ft | 193 kts | 123° |
| 2026-05-06 18:31 | 48.22526 | 16.21611 | 4966 ft | 192 kts | 122° |
| 2026-05-06 18:31 | 48.21943 | 16.23421 | 4916 ft | 193 kts | 122° |
| 2026-05-06 18:32 | 48.21491 | 16.24826 | 4763 ft | 192 kts | 122° |
| 2026-05-06 18:32 | 48.20915 | 16.26620 | 4527 ft | 190 kts | 123° |
| 2026-05-06 18:32 | 48.20342 | 16.28400 | 4279 ft | 188 kts | 122° |
| 2026-05-06 18:32 | 48.19774 | 16.30165 | 4025 ft | 187 kts | 124° |
| 2026-05-06 18:33 | 48.19210 | 16.31916 | 3779 ft | 185 kts | 124° |
| 2026-05-06 18:33 | 48.18652 | 16.33649 | 3522 ft | 184 kts | 123° |
| 2026-05-06 18:33 | 48.18095 | 16.35375 | 3272 ft | 183 kts | 123° |
| 2026-05-06 18:33 | 48.17546 | 16.37078 | 3038 ft | 180 kts | 124° |
| 2026-05-06 18:34 | 48.16996 | 16.38743 | 2774 ft | 172 kts | 126° |
| 2026-05-06 18:34 | 48.16485 | 16.40309 | 2489 ft | 165 kts | 121° |
| 2026-05-06 18:34 | 48.16039 | 16.41851 | 2227 ft | 162 kts | 123° |
| 2026-05-06 18:34 | 48.15556 | 16.43292 | 2122 ft | 147 kts | 124° |
| 2026-05-06 18:35 | 48.15119 | 16.44705 | 1931 ft | 152 kts | 129° |
| 2026-05-06 18:35 | 48.14635 | 16.46113 | 1707 ft | 152 kts | 127° |
| 2026-05-06 18:35 | 48.14177 | 16.47548 | 1486 ft | 151 kts | 127° |
| 2026-05-06 18:35 | 48.13725 | 16.48937 | 1328 ft | 147 kts | 122° |
| 2026-05-06 18:36 | 48.13259 | 16.50323 | 1075 ft | 150 kts | 121° |
| 2026-05-06 18:36 | 48.12822 | 16.51701 | 906 ft | 144 kts | 121° |
| 2026-05-06 18:36 | 48.12381 | 16.53032 | 693 ft | 141 kts | 121° |
| 2026-05-06 18:36 | 48.11964 | 16.54301 | 620 ft | 126 kts | 122° |
| 2026-05-06 18:37 | 48.11630 | 16.55307 | 624 ft | 89 kts | 114° |
| 2026-05-06 18:37 | 48.11526 | 16.55675 | 622 ft | 39 kts | 107° |
| 2026-05-06 18:37 | 48.11506 | 16.55978 | 610 ft | 0 kts | 86° |
| 2026-05-06 18:37 | 48.11506 | 16.55992 | 610 ft | 6 kts | 86° |
| 2026-05-06 18:38 | 48.11522 | 16.56085 | 619 ft | 10 kts | 55° |
| 2026-05-06 18:38 | 48.11568 | 16.56148 | 617 ft | 9 kts | 36° |
| 2026-05-06 18:38 | 48.11613 | 16.56199 | 620 ft | 8 kts | 44° |
| 2026-05-06 18:38 | 48.11613 | 16.56314 | 614 ft | 17 kts | 113° |
| 2026-05-06 18:39 | 48.11544 | 16.56530 | 618 ft | 28 kts | 116° |
| 2026-05-06 18:39 | 48.11460 | 16.56786 | 615 ft | 26 kts | 118° |
| 2026-05-06 18:39 | 48.11395 | 16.56989 | 620 ft | 16 kts | 115° |
| 2026-05-06 18:40 | 48.11349 | 16.57135 | 616 ft | 11 kts | 116° |
| 2026-05-06 18:40 | 48.11318 | 16.57311 | 619 ft | 16 kts | 58° |
| 2026-05-06 18:40 | 48.11400 | 16.57393 | 626 ft | 16 kts | 26° |
| 2026-05-06 18:40 | 48.11500 | 16.57451 | 613 ft | 15 kts | 9° |
| 2026-05-06 18:41 | 48.11594 | 16.57433 | 613 ft | 13 kts | 343° |
| 2026-05-06 18:41 | 48.11679 | 16.57398 | 615 ft | 12 kts | 345° |
| 2026-05-06 18:41 | 48.11755 | 16.57368 | 617 ft | 11 kts | 345° |
| 2026-05-06 18:41 | 48.11815 | 16.57321 | 618 ft | 9 kts | 311° |
| 2026-05-06 18:42 | 48.11823 | 16.57246 | 621 ft | 7 kts | 236° |
| 2026-05-06 18:42 | 48.11772 | 16.57195 | 614 ft | 5 kts | 207° |
| 2026-05-06 18:42 | 48.11749 | 16.57178 | 616 ft | 0 kts | 206° |